sensor_id;sensor_type;location;lat;lon;timestamp;temperature;humidity
490;DHT22;231;48.120;11.576;2022-12-18T00:02:19;-2.70;44.20
490;DHT22;231;48.120;11.576;2022-12-18T00:04:49;-2.70;44.40
490;DHT22;231;48.120;11.576;2022-12-18T00:07:17;-2.70;45.10
490;DHT22;231;48.120;11.576;2022-12-18T00:09:45;-3.00;45.00
490;DHT22;231;48.120;11.576;2022-12-18T00:12:12;-2.70;45.90
490;DHT22;231;48.120;11.576;2022-12-18T00:14:41;-3.30;45.60
490;DHT22;231;48.120;11.576;2022-12-18T00:17:08;-2.90;46.60
490;DHT22;231;48.120;11.576;2022-12-18T00:19:34;-3.40;47.70
490;DHT22;231;48.120;11.576;2022-12-18T00:22:01;-2.90;48.40
490;DHT22;231;48.120;11.576;2022-12-18T00:24:28;-3.40;47.30
490;DHT22;231;48.120;11.576;2022-12-18T00:26:55;-3.00;48.20
490;DHT22;231;48.120;11.576;2022-12-18T00:29:22;-3.30;48.70
490;DHT22;231;48.120;11.576;2022-12-18T00:31:51;-3.40;48.00
490;DHT22;231;48.120;11.576;2022-12-18T00:34:17;-2.80;48.80
490;DHT22;231;48.120;11.576;2022-12-18T00:36:47;-3.10;47.60
490;DHT22;231;48.120;11.576;2022-12-18T00:39:14;-3.10;47.30
490;DHT22;231;48.120;11.576;2022-12-18T00:41:41;-3.10;47.60
490;DHT22;231;48.120;11.576;2022-12-18T00:44:26;-2.70;47.70
490;DHT22;231;48.120;11.576;2022-12-18T00:46:54;-2.80;45.90
490;DHT22;231;48.120;11.576;2022-12-18T00:49:21;-3.10;46.50
490;DHT22;231;48.120;11.576;2022-12-18T00:51:48;-2.80;46.40
490;DHT22;231;48.120;11.576;2022-12-18T00:54:16;-2.80;46.70
490;DHT22;231;48.120;11.576;2022-12-18T00:56:43;-2.70;47.50
490;DHT22;231;48.120;11.576;2022-12-18T00:59:10;-2.80;47.70
490;DHT22;231;48.120;11.576;2022-12-18T01:01:37;-3.00;47.90
490;DHT22;231;48.120;11.576;2022-12-18T01:04:06;-3.20;48.20
490;DHT22;231;48.120;11.576;2022-12-18T01:06:33;-3.30;48.50
490;DHT22;231;48.120;11.576;2022-12-18T01:09:00;-3.20;47.80
490;DHT22;231;48.120;11.576;2022-12-18T01:11:27;-3.30;47.20
490;DHT22;231;48.120;11.576;2022-12-18T01:13:54;-3.30;47.20
490;DHT22;231;48.120;11.576;2022-12-18T01:16:22;-3.40;47.10
490;DHT22;231;48.120;11.576;2022-12-18T01:18:52;-3.30;47.60
490;DHT22;231;48.120;11.576;2022-12-18T01:21:22;-3.20;46.80
490;DHT22;231;48.120;11.576;2022-12-18T01:23:52;-3.60;46.30
490;DHT22;231;48.120;11.576;2022-12-18T01:26:19;-3.10;48.00
490;DHT22;231;48.120;11.576;2022-12-18T01:28:46;-3.00;48.00
490;DHT22;231;48.120;11.576;2022-12-18T01:31:16;-3.30;47.80
490;DHT22;231;48.120;11.576;2022-12-18T01:33:43;-3.10;47.00
490;DHT22;231;48.120;11.576;2022-12-18T01:36:16;-3.20;47.60
490;DHT22;231;48.120;11.576;2022-12-18T01:38:44;-3.40;47.40
490;DHT22;231;48.120;11.576;2022-12-18T01:41:12;-3.20;47.90
490;DHT22;231;48.120;11.576;2022-12-18T01:43:48;-3.10;48.30
490;DHT22;231;48.120;11.576;2022-12-18T01:46:16;-3.20;47.70
490;DHT22;231;48.120;11.576;2022-12-18T01:48:47;-2.90;48.60
490;DHT22;231;48.120;11.576;2022-12-18T01:51:16;-3.30;47.80
490;DHT22;231;48.120;11.576;2022-12-18T01:53:45;-3.10;47.50
490;DHT22;231;48.120;11.576;2022-12-18T01:56:14;-3.10;47.60
490;DHT22;231;48.120;11.576;2022-12-18T01:58:48;-3.40;47.10
490;DHT22;231;48.120;11.576;2022-12-18T02:01:20;-3.00;47.00
490;DHT22;231;48.120;11.576;2022-12-18T02:03:47;-3.60;47.00
490;DHT22;231;48.120;11.576;2022-12-18T02:06:16;-3.20;47.40
490;DHT22;231;48.120;11.576;2022-12-18T02:08:57;-3.40;47.70
490;DHT22;231;48.120;11.576;2022-12-18T02:11:35;-3.10;47.80
490;DHT22;231;48.120;11.576;2022-12-18T02:14:16;-3.30;47.50
490;DHT22;231;48.120;11.576;2022-12-18T02:16:50;-3.00;47.80
490;DHT22;231;48.120;11.576;2022-12-18T02:19:35;-3.50;47.90
490;DHT22;231;48.120;11.576;2022-12-18T02:22:16;-3.60;47.50
490;DHT22;231;48.120;11.576;2022-12-18T02:24:55;-3.10;48.20
490;DHT22;231;48.120;11.576;2022-12-18T02:27:29;-3.00;48.60
490;DHT22;231;48.120;11.576;2022-12-18T02:29:58;-3.50;47.20
490;DHT22;231;48.120;11.576;2022-12-18T02:32:28;-3.40;47.50
490;DHT22;231;48.120;11.576;2022-12-18T02:35:04;-3.10;47.10
490;DHT22;231;48.120;11.576;2022-12-18T02:37:33;-3.10;48.30
490;DHT22;231;48.120;11.576;2022-12-18T02:40:03;-3.10;48.20
490;DHT22;231;48.120;11.576;2022-12-18T02:42:32;-3.10;48.30
490;DHT22;231;48.120;11.576;2022-12-18T02:44:59;-3.50;47.90
490;DHT22;231;48.120;11.576;2022-12-18T02:47:32;-3.70;47.90
490;DHT22;231;48.120;11.576;2022-12-18T02:50:07;-3.10;48.50
490;DHT22;231;48.120;11.576;2022-12-18T02:52:41;-3.10;48.40
490;DHT22;231;48.120;11.576;2022-12-18T02:55:19;-3.30;47.80
490;DHT22;231;48.120;11.576;2022-12-18T02:57:50;-3.00;47.20
490;DHT22;231;48.120;11.576;2022-12-18T03:00:21;-3.40;47.40
490;DHT22;231;48.120;11.576;2022-12-18T03:02:53;-3.30;47.80
490;DHT22;231;48.120;11.576;2022-12-18T03:05:27;-3.60;48.40
490;DHT22;231;48.120;11.576;2022-12-18T03:07:57;-3.80;47.50
490;DHT22;231;48.120;11.576;2022-12-18T03:10:27;-3.70;48.40
490;DHT22;231;48.120;11.576;2022-12-18T03:13:02;-3.30;49.50
490;DHT22;231;48.120;11.576;2022-12-18T03:15:34;-3.40;49.10
490;DHT22;231;48.120;11.576;2022-12-18T03:18:06;-3.40;49.60
490;DHT22;231;48.120;11.576;2022-12-18T03:20:35;-3.50;49.60
490;DHT22;231;48.120;11.576;2022-12-18T03:23:07;-3.40;49.90
490;DHT22;231;48.120;11.576;2022-12-18T03:25:39;-3.60;49.70
490;DHT22;231;48.120;11.576;2022-12-18T03:28:12;-3.50;49.50
490;DHT22;231;48.120;11.576;2022-12-18T03:30:41;-3.40;48.90
490;DHT22;231;48.120;11.576;2022-12-18T03:33:14;-3.60;49.10
490;DHT22;231;48.120;11.576;2022-12-18T03:35:43;-3.20;49.20
490;DHT22;231;48.120;11.576;2022-12-18T03:38:10;-3.50;48.20
490;DHT22;231;48.120;11.576;2022-12-18T03:40:45;-3.40;47.80
490;DHT22;231;48.120;11.576;2022-12-18T03:43:23;-3.10;48.40
490;DHT22;231;48.120;11.576;2022-12-18T03:45:53;-3.60;48.60
490;DHT22;231;48.120;11.576;2022-12-18T03:48:26;-3.80;47.90
490;DHT22;231;48.120;11.576;2022-12-18T03:50:57;-3.60;48.70
490;DHT22;231;48.120;11.576;2022-12-18T03:53:35;-3.30;49.30
490;DHT22;231;48.120;11.576;2022-12-18T03:56:04;-3.40;49.10
490;DHT22;231;48.120;11.576;2022-12-18T03:58:34;-3.00;47.80
490;DHT22;231;48.120;11.576;2022-12-18T04:01:03;-3.60;46.80
490;DHT22;231;48.120;11.576;2022-12-18T04:03:32;-3.40;47.00
490;DHT22;231;48.120;11.576;2022-12-18T04:06:01;-3.30;46.80
490;DHT22;231;48.120;11.576;2022-12-18T04:08:29;-3.20;46.80
490;DHT22;231;48.120;11.576;2022-12-18T04:10:59;-3.30;45.60
490;DHT22;231;48.120;11.576;2022-12-18T04:13:28;-3.10;45.80
490;DHT22;231;48.120;11.576;2022-12-18T04:15:57;-3.20;46.60
490;DHT22;231;48.120;11.576;2022-12-18T04:18:24;-2.90;46.70
490;DHT22;231;48.120;11.576;2022-12-18T04:20:51;-3.20;45.30
490;DHT22;231;48.120;11.576;2022-12-18T04:23:18;-3.30;44.80
490;DHT22;231;48.120;11.576;2022-12-18T04:25:46;-3.10;45.00
490;DHT22;231;48.120;11.576;2022-12-18T04:28:13;-3.30;43.70
490;DHT22;231;48.120;11.576;2022-12-18T04:30:40;-2.90;44.50
490;DHT22;231;48.120;11.576;2022-12-18T04:33:10;-2.80;45.00
490;DHT22;231;48.120;11.576;2022-12-18T04:35:37;-3.20;43.70
490;DHT22;231;48.120;11.576;2022-12-18T04:38:05;-3.30;43.80
490;DHT22;231;48.120;11.576;2022-12-18T04:40:32;-3.30;43.50
490;DHT22;231;48.120;11.576;2022-12-18T04:42:59;-3.40;44.50
490;DHT22;231;48.120;11.576;2022-12-18T04:45:26;-3.40;43.90
490;DHT22;231;48.120;11.576;2022-12-18T04:47:53;-2.80;44.10
490;DHT22;231;48.120;11.576;2022-12-18T04:50:21;-3.50;43.40
490;DHT22;231;48.120;11.576;2022-12-18T04:52:48;-3.60;44.60
490;DHT22;231;48.120;11.576;2022-12-18T04:55:15;-3.60;45.30
490;DHT22;231;48.120;11.576;2022-12-18T04:57:45;-3.20;47.00
490;DHT22;231;48.120;11.576;2022-12-18T05:00:12;-3.50;45.60
490;DHT22;231;48.120;11.576;2022-12-18T05:02:39;-3.10;45.10
490;DHT22;231;48.120;11.576;2022-12-18T05:05:07;-3.50;44.30
490;DHT22;231;48.120;11.576;2022-12-18T05:07:35;-2.90;45.20
490;DHT22;231;48.120;11.576;2022-12-18T05:10:03;-3.00;45.00
490;DHT22;231;48.120;11.576;2022-12-18T05:12:31;-2.80;44.20
490;DHT22;231;48.120;11.576;2022-12-18T05:14:58;-3.00;43.50
490;DHT22;231;48.120;11.576;2022-12-18T05:17:25;-3.60;42.50
490;DHT22;231;48.120;11.576;2022-12-18T05:19:52;-3.70;43.20
490;DHT22;231;48.120;11.576;2022-12-18T05:22:18;-3.60;43.80
490;DHT22;231;48.120;11.576;2022-12-18T05:24:47;-3.70;44.10
490;DHT22;231;48.120;11.576;2022-12-18T05:27:13;-3.50;44.90
490;DHT22;231;48.120;11.576;2022-12-18T05:29:40;-3.70;44.30
490;DHT22;231;48.120;11.576;2022-12-18T05:32:07;-3.20;44.70
490;DHT22;231;48.120;11.576;2022-12-18T05:34:34;-3.40;44.70
490;DHT22;231;48.120;11.576;2022-12-18T05:37:01;-3.60;44.50
490;DHT22;231;48.120;11.576;2022-12-18T05:39:29;-3.40;44.20
490;DHT22;231;48.120;11.576;2022-12-18T05:41:57;-3.50;43.80
490;DHT22;231;48.120;11.576;2022-12-18T05:44:24;-3.30;43.60
490;DHT22;231;48.120;11.576;2022-12-18T05:46:51;-2.90;43.40
490;DHT22;231;48.120;11.576;2022-12-18T05:49:18;-3.10;42.00
490;DHT22;231;48.120;11.576;2022-12-18T05:51:45;-3.00;43.50
490;DHT22;231;48.120;11.576;2022-12-18T05:54:12;-3.10;43.20
490;DHT22;231;48.120;11.576;2022-12-18T05:56:38;-3.60;42.80
490;DHT22;231;48.120;11.576;2022-12-18T05:59:07;-3.30;44.00
490;DHT22;231;48.120;11.576;2022-12-18T06:01:34;-3.50;44.10
490;DHT22;231;48.120;11.576;2022-12-18T06:04:01;-3.70;43.70
490;DHT22;231;48.120;11.576;2022-12-18T06:06:28;-3.60;43.80
490;DHT22;231;48.120;11.576;2022-12-18T06:08:56;-3.60;43.70
490;DHT22;231;48.120;11.576;2022-12-18T06:11:24;-3.30;44.00
490;DHT22;231;48.120;11.576;2022-12-18T06:13:52;-3.30;43.70
490;DHT22;231;48.120;11.576;2022-12-18T06:16:21;-3.70;43.40
490;DHT22;231;48.120;11.576;2022-12-18T06:18:48;-3.70;43.50
490;DHT22;231;48.120;11.576;2022-12-18T06:21:15;-3.80;43.90
490;DHT22;231;48.120;11.576;2022-12-18T06:23:42;-3.70;43.60
490;DHT22;231;48.120;11.576;2022-12-18T06:26:11;-3.60;43.70
490;DHT22;231;48.120;11.576;2022-12-18T06:28:38;-3.60;42.80
490;DHT22;231;48.120;11.576;2022-12-18T06:31:06;-3.60;43.00
490;DHT22;231;48.120;11.576;2022-12-18T06:33:35;-3.50;42.90
490;DHT22;231;48.120;11.576;2022-12-18T06:36:04;-3.30;42.20
490;DHT22;231;48.120;11.576;2022-12-18T06:38:31;-2.90;41.40
490;DHT22;231;48.120;11.576;2022-12-18T06:40:59;-3.10;41.20
490;DHT22;231;48.120;11.576;2022-12-18T06:43:26;-3.10;41.60
490;DHT22;231;48.120;11.576;2022-12-18T06:45:59;-3.70;41.40
490;DHT22;231;48.120;11.576;2022-12-18T06:48:26;-3.20;42.60
490;DHT22;231;48.120;11.576;2022-12-18T06:50:54;-3.20;43.40
490;DHT22;231;48.120;11.576;2022-12-18T06:53:21;-3.10;42.70
490;DHT22;231;48.120;11.576;2022-12-18T06:55:48;-3.20;42.90
490;DHT22;231;48.120;11.576;2022-12-18T06:58:15;-3.20;43.90
490;DHT22;231;48.120;11.576;2022-12-18T07:00:42;-3.70;43.60
490;DHT22;231;48.120;11.576;2022-12-18T07:03:08;-3.70;43.10
490;DHT22;231;48.120;11.576;2022-12-18T07:05:39;-3.80;42.80
490;DHT22;231;48.120;11.576;2022-12-18T07:08:08;-3.30;43.20
490;DHT22;231;48.120;11.576;2022-12-18T07:10:40;-3.30;43.20
490;DHT22;231;48.120;11.576;2022-12-18T07:13:07;-3.60;42.30
490;DHT22;231;48.120;11.576;2022-12-18T07:15:34;-3.80;42.10
490;DHT22;231;48.120;11.576;2022-12-18T07:18:01;-3.60;42.20
490;DHT22;231;48.120;11.576;2022-12-18T07:20:29;-3.00;42.40
490;DHT22;231;48.120;11.576;2022-12-18T07:22:56;-3.10;42.30
490;DHT22;231;48.120;11.576;2022-12-18T07:25:24;-3.20;41.90
490;DHT22;231;48.120;11.576;2022-12-18T07:27:51;-3.60;42.00
490;DHT22;231;48.120;11.576;2022-12-18T07:30:18;-3.50;41.40
490;DHT22;231;48.120;11.576;2022-12-18T07:32:45;-3.00;40.70
490;DHT22;231;48.120;11.576;2022-12-18T07:35:12;-3.30;41.00
490;DHT22;231;48.120;11.576;2022-12-18T07:37:39;-3.10;41.90
490;DHT22;231;48.120;11.576;2022-12-18T07:40:07;-3.20;41.40
490;DHT22;231;48.120;11.576;2022-12-18T07:42:36;-3.20;41.60
490;DHT22;231;48.120;11.576;2022-12-18T07:45:04;-3.70;41.30
490;DHT22;231;48.120;11.576;2022-12-18T07:47:33;-3.00;42.20
490;DHT22;231;48.120;11.576;2022-12-18T07:50:00;-3.30;41.60
490;DHT22;231;48.120;11.576;2022-12-18T07:52:27;-2.90;42.50
490;DHT22;231;48.120;11.576;2022-12-18T07:54:54;-3.30;41.30
490;DHT22;231;48.120;11.576;2022-12-18T07:57:21;-2.80;41.60
490;DHT22;231;48.120;11.576;2022-12-18T07:59:49;-3.60;39.20
490;DHT22;231;48.120;11.576;2022-12-18T08:02:16;-3.90;39.90
490;DHT22;231;48.120;11.576;2022-12-18T08:04:43;-3.50;41.20
490;DHT22;231;48.120;11.576;2022-12-18T08:07:10;-3.40;41.60
490;DHT22;231;48.120;11.576;2022-12-18T08:12:22;-2.60;40.10
490;DHT22;231;48.120;11.576;2022-12-18T08:14:51;-3.00;38.80
490;DHT22;231;48.120;11.576;2022-12-18T08:17:19;-3.10;40.30
490;DHT22;231;48.120;11.576;2022-12-18T08:19:46;-2.80;40.70
490;DHT22;231;48.120;11.576;2022-12-18T08:22:13;-3.30;39.00
490;DHT22;231;48.120;11.576;2022-12-18T08:24:40;-3.30;38.00
490;DHT22;231;48.120;11.576;2022-12-18T08:27:07;-3.50;37.90
490;DHT22;231;48.120;11.576;2022-12-18T08:29:37;-3.70;38.70
490;DHT22;231;48.120;11.576;2022-12-18T08:32:09;-3.10;40.20
490;DHT22;231;48.120;11.576;2022-12-18T08:34:37;-3.30;39.50
490;DHT22;231;48.120;11.576;2022-12-18T08:37:03;-3.10;39.40
490;DHT22;231;48.120;11.576;2022-12-18T08:39:30;-2.90;40.00
490;DHT22;231;48.120;11.576;2022-12-18T08:41:57;-3.40;39.90
490;DHT22;231;48.120;11.576;2022-12-18T08:44:47;-3.20;39.30
490;DHT22;231;48.120;11.576;2022-12-18T08:47:15;-2.50;39.30
490;DHT22;231;48.120;11.576;2022-12-18T08:49:44;-2.80;37.80
490;DHT22;231;48.120;11.576;2022-12-18T08:52:11;-3.40;36.90
490;DHT22;231;48.120;11.576;2022-12-18T08:54:38;-3.30;37.40
490;DHT22;231;48.120;11.576;2022-12-18T08:57:04;-3.00;38.00
490;DHT22;231;48.120;11.576;2022-12-18T08:59:32;-3.20;38.40
490;DHT22;231;48.120;11.576;2022-12-18T09:01:59;-2.70;38.30
490;DHT22;231;48.120;11.576;2022-12-18T09:04:27;-3.00;36.90
490;DHT22;231;48.120;11.576;2022-12-18T09:06:54;-2.70;36.20
490;DHT22;231;48.120;11.576;2022-12-18T09:09:21;-2.70;36.40
490;DHT22;231;48.120;11.576;2022-12-18T09:11:48;-2.70;36.20
490;DHT22;231;48.120;11.576;2022-12-18T09:14:15;-3.20;36.60
490;DHT22;231;48.120;11.576;2022-12-18T09:16:43;-3.00;36.90
490;DHT22;231;48.120;11.576;2022-12-18T09:19:10;-2.80;36.50
490;DHT22;231;48.120;11.576;2022-12-18T09:21:39;-2.50;36.70
490;DHT22;231;48.120;11.576;2022-12-18T09:24:08;-3.40;35.60
490;DHT22;231;48.120;11.576;2022-12-18T09:26:38;-2.80;37.50
490;DHT22;231;48.120;11.576;2022-12-18T09:29:05;-3.00;37.90
490;DHT22;231;48.120;11.576;2022-12-18T09:31:33;-2.90;36.90
490;DHT22;231;48.120;11.576;2022-12-18T09:34:00;-3.10;37.40
490;DHT22;231;48.120;11.576;2022-12-18T09:36:27;-3.60;36.60
490;DHT22;231;48.120;11.576;2022-12-18T09:38:56;-3.10;38.30
490;DHT22;231;48.120;11.576;2022-12-18T09:41:40;-3.50;38.00
490;DHT22;231;48.120;11.576;2022-12-18T09:44:27;-3.30;38.00
490;DHT22;231;48.120;11.576;2022-12-18T09:47:08;-3.40;38.30
490;DHT22;231;48.120;11.576;2022-12-18T09:49:40;-3.00;38.00
490;DHT22;231;48.120;11.576;2022-12-18T09:52:16;-3.10;38.50
490;DHT22;231;48.120;11.576;2022-12-18T09:54:48;-2.80;38.20
490;DHT22;231;48.120;11.576;2022-12-18T09:57:19;-3.20;37.90
490;DHT22;231;48.120;11.576;2022-12-18T09:59:51;-2.70;37.50
490;DHT22;231;48.120;11.576;2022-12-18T10:02:21;-2.50;37.00
490;DHT22;231;48.120;11.576;2022-12-18T10:05:05;-2.50;36.70
490;DHT22;231;48.120;11.576;2022-12-18T10:07:41;-2.90;33.90
490;DHT22;231;48.120;11.576;2022-12-18T10:10:23;-3.10;34.30
490;DHT22;231;48.120;11.576;2022-12-18T10:12:58;-2.30;35.70
490;DHT22;231;48.120;11.576;2022-12-18T10:15:30;-2.30;34.30
490;DHT22;231;48.120;11.576;2022-12-18T10:18:07;-2.30;33.90
490;DHT22;231;48.120;11.576;2022-12-18T10:20:45;-3.10;33.00
490;DHT22;231;48.120;11.576;2022-12-18T10:23:19;-2.80;35.60
490;DHT22;231;48.120;11.576;2022-12-18T10:25:55;-2.90;36.00
490;DHT22;231;48.120;11.576;2022-12-18T10:28:26;-3.60;35.90
490;DHT22;231;48.120;11.576;2022-12-18T10:30:56;-3.70;37.70
490;DHT22;231;48.120;11.576;2022-12-18T10:33:27;-3.40;38.60
490;DHT22;231;48.120;11.576;2022-12-18T10:35:54;-3.30;38.90
490;DHT22;231;48.120;11.576;2022-12-18T10:38:24;-3.30;37.50
490;DHT22;231;48.120;11.576;2022-12-18T10:40:56;-3.40;37.10
490;DHT22;231;48.120;11.576;2022-12-18T10:43:26;-2.90;37.50
490;DHT22;231;48.120;11.576;2022-12-18T10:46:04;-2.90;37.10
490;DHT22;231;48.120;11.576;2022-12-18T10:48:35;-3.50;36.30
490;DHT22;231;48.120;11.576;2022-12-18T10:51:04;-3.20;36.60
490;DHT22;231;48.120;11.576;2022-12-18T10:53:36;-2.80;37.40
490;DHT22;231;48.120;11.576;2022-12-18T10:56:06;-3.10;36.20
490;DHT22;231;48.120;11.576;2022-12-18T10:58:35;-2.80;36.60
490;DHT22;231;48.120;11.576;2022-12-18T11:01:12;-2.70;35.60
490;DHT22;231;48.120;11.576;2022-12-18T11:03:41;-2.90;36.20
490;DHT22;231;48.120;11.576;2022-12-18T11:06:10;-2.50;35.10
490;DHT22;231;48.120;11.576;2022-12-18T11:08:38;-2.50;35.10
490;DHT22;231;48.120;11.576;2022-12-18T11:11:17;-2.60;35.30
490;DHT22;231;48.120;11.576;2022-12-18T11:13:54;-2.50;34.30
490;DHT22;231;48.120;11.576;2022-12-18T11:16:24;-2.30;34.00
490;DHT22;231;48.120;11.576;2022-12-18T11:19:18;-2.10;34.40
490;DHT22;231;48.120;11.576;2022-12-18T11:21:47;-2.20;33.90
490;DHT22;231;48.120;11.576;2022-12-18T11:24:27;-2.30;34.00
490;DHT22;231;48.120;11.576;2022-12-18T11:26:58;-2.20;33.60
490;DHT22;231;48.120;11.576;2022-12-18T11:29:32;-2.20;33.20
490;DHT22;231;48.120;11.576;2022-12-18T11:32:31;-2.60;33.10
490;DHT22;231;48.120;11.576;2022-12-18T11:35:14;-2.20;33.60
490;DHT22;231;48.120;11.576;2022-12-18T11:37:49;-2.50;33.40
490;DHT22;231;48.120;11.576;2022-12-18T11:40:21;-2.50;32.40
490;DHT22;231;48.120;11.576;2022-12-18T11:42:58;-2.20;33.30
490;DHT22;231;48.120;11.576;2022-12-18T11:45:30;-2.50;32.40
490;DHT22;231;48.120;11.576;2022-12-18T11:48:02;-1.60;32.60
490;DHT22;231;48.120;11.576;2022-12-18T11:50:37;-2.30;29.50
490;DHT22;231;48.120;11.576;2022-12-18T11:53:11;-2.10;30.00
490;DHT22;231;48.120;11.576;2022-12-18T11:55:41;-2.20;31.80
490;DHT22;231;48.120;11.576;2022-12-18T11:58:19;-2.70;32.40
490;DHT22;231;48.120;11.576;2022-12-18T12:00:54;-3.10;34.50
490;DHT22;231;48.120;11.576;2022-12-18T12:03:44;-2.70;36.00
490;DHT22;231;48.120;11.576;2022-12-18T12:06:21;-3.30;35.00
490;DHT22;231;48.120;11.576;2022-12-18T12:09:02;-3.20;35.70
490;DHT22;231;48.120;11.576;2022-12-18T12:11:37;-3.00;36.30
490;DHT22;231;48.120;11.576;2022-12-18T12:14:27;-2.50;36.70
490;DHT22;231;48.120;11.576;2022-12-18T12:17:01;-2.40;36.80
490;DHT22;231;48.120;11.576;2022-12-18T12:19:36;-2.50;36.40
490;DHT22;231;48.120;11.576;2022-12-18T12:22:09;-2.50;35.30
490;DHT22;231;48.120;11.576;2022-12-18T12:24:50;-2.50;34.40
490;DHT22;231;48.120;11.576;2022-12-18T12:27:28;-2.00;33.80
490;DHT22;231;48.120;11.576;2022-12-18T12:30:05;-2.30;32.20
490;DHT22;231;48.120;11.576;2022-12-18T12:32:45;-1.90;30.90
490;DHT22;231;48.120;11.576;2022-12-18T12:35:25;-2.40;29.50
490;DHT22;231;48.120;11.576;2022-12-18T12:38:06;-2.10;30.70
490;DHT22;231;48.120;11.576;2022-12-18T12:40:36;-2.10;31.40
490;DHT22;231;48.120;11.576;2022-12-18T12:43:16;-2.60;31.80
490;DHT22;231;48.120;11.576;2022-12-18T12:45:51;-3.00;32.40
490;DHT22;231;48.120;11.576;2022-12-18T12:48:32;-3.10;33.50
490;DHT22;231;48.120;11.576;2022-12-18T12:51:01;-2.50;34.10
490;DHT22;231;48.120;11.576;2022-12-18T12:53:34;-2.80;34.20
490;DHT22;231;48.120;11.576;2022-12-18T12:56:03;-2.60;33.90
490;DHT22;231;48.120;11.576;2022-12-18T12:58:36;-2.00;34.80
490;DHT22;231;48.120;11.576;2022-12-18T13:01:16;-2.60;34.60
490;DHT22;231;48.120;11.576;2022-12-18T13:03:54;-2.20;33.10
490;DHT22;231;48.120;11.576;2022-12-18T13:06:32;-2.60;32.40
490;DHT22;231;48.120;11.576;2022-12-18T13:09:00;-3.10;33.50
490;DHT22;231;48.120;11.576;2022-12-18T13:11:37;-3.00;33.00
490;DHT22;231;48.120;11.576;2022-12-18T13:14:26;-2.40;34.00
490;DHT22;231;48.120;11.576;2022-12-18T13:17:16;-2.50;33.40
490;DHT22;231;48.120;11.576;2022-12-18T13:19:43;-2.50;33.20
490;DHT22;231;48.120;11.576;2022-12-18T13:22:22;-2.80;33.50
490;DHT22;231;48.120;11.576;2022-12-18T13:24:50;-2.20;34.40
490;DHT22;231;48.120;11.576;2022-12-18T13:27:46;-2.90;34.00
490;DHT22;231;48.120;11.576;2022-12-18T13:30:44;-2.30;33.30
490;DHT22;231;48.120;11.576;2022-12-18T13:36:32;-2.40;33.00
490;DHT22;231;48.120;11.576;2022-12-18T13:39:23;-2.70;33.40
490;DHT22;231;48.120;11.576;2022-12-18T13:41:52;-2.60;33.70
490;DHT22;231;48.120;11.576;2022-12-18T13:44:31;-2.70;34.30
490;DHT22;231;48.120;11.576;2022-12-18T13:46:59;-2.70;35.00
490;DHT22;231;48.120;11.576;2022-12-18T13:49:31;-2.60;35.00
490;DHT22;231;48.120;11.576;2022-12-18T13:52:16;-2.80;34.90
490;DHT22;231;48.120;11.576;2022-12-18T13:54:50;-2.60;34.50
490;DHT22;231;48.120;11.576;2022-12-18T13:57:27;-2.50;34.80
490;DHT22;231;48.120;11.576;2022-12-18T13:59:55;-3.00;34.10
490;DHT22;231;48.120;11.576;2022-12-18T14:02:26;-2.50;35.30
490;DHT22;231;48.120;11.576;2022-12-18T14:04:54;-2.50;35.80
490;DHT22;231;48.120;11.576;2022-12-18T14:07:24;-2.60;36.00
490;DHT22;231;48.120;11.576;2022-12-18T14:09:53;-2.50;36.20
490;DHT22;231;48.120;11.576;2022-12-18T14:12:24;-2.60;35.40
490;DHT22;231;48.120;11.576;2022-12-18T14:15:20;-2.40;35.20
490;DHT22;231;48.120;11.576;2022-12-18T14:17:49;-2.80;35.60
490;DHT22;231;48.120;11.576;2022-12-18T14:20:17;-2.90;35.00
490;DHT22;231;48.120;11.576;2022-12-18T14:22:47;-2.40;35.30
490;DHT22;231;48.120;11.576;2022-12-18T14:25:17;-2.50;35.00
490;DHT22;231;48.120;11.576;2022-12-18T14:27:47;-2.50;35.50
490;DHT22;231;48.120;11.576;2022-12-18T14:30:29;-2.30;35.20
490;DHT22;231;48.120;11.576;2022-12-18T14:33:01;-2.80;35.10
490;DHT22;231;48.120;11.576;2022-12-18T14:35:28;-2.20;35.80
490;DHT22;231;48.120;11.576;2022-12-18T14:38:10;-2.80;35.10
490;DHT22;231;48.120;11.576;2022-12-18T14:40:37;-2.70;34.70
490;DHT22;231;48.120;11.576;2022-12-18T14:43:04;-2.80;34.80
490;DHT22;231;48.120;11.576;2022-12-18T14:45:36;-2.50;35.60
490;DHT22;231;48.120;11.576;2022-12-18T14:48:06;-2.60;35.10
490;DHT22;231;48.120;11.576;2022-12-18T14:50:33;-2.70;36.60
490;DHT22;231;48.120;11.576;2022-12-18T14:53:00;-2.60;37.40
490;DHT22;231;48.120;11.576;2022-12-18T14:55:29;-2.60;37.40
490;DHT22;231;48.120;11.576;2022-12-18T14:57:56;-2.30;37.40
490;DHT22;231;48.120;11.576;2022-12-18T15:00:25;-2.40;36.90
490;DHT22;231;48.120;11.576;2022-12-18T15:02:54;-2.70;36.20
490;DHT22;231;48.120;11.576;2022-12-18T15:05:26;-2.40;36.20
490;DHT22;231;48.120;11.576;2022-12-18T15:07:54;-2.40;35.80
490;DHT22;231;48.120;11.576;2022-12-18T15:10:22;-2.70;35.60
490;DHT22;231;48.120;11.576;2022-12-18T15:13:07;-2.40;34.70
490;DHT22;231;48.120;11.576;2022-12-18T15:15:52;-3.10;35.20
490;DHT22;231;48.120;11.576;2022-12-18T15:18:20;-2.80;36.90
490;DHT22;231;48.120;11.576;2022-12-18T15:20:49;-3.00;36.60
490;DHT22;231;48.120;11.576;2022-12-18T15:23:19;-3.20;36.50
490;DHT22;231;48.120;11.576;2022-12-18T15:25:48;-2.90;38.00
490;DHT22;231;48.120;11.576;2022-12-18T15:28:24;-3.90;39.40
490;DHT22;231;48.120;11.576;2022-12-18T15:31:00;-3.60;41.60
490;DHT22;231;48.120;11.576;2022-12-18T15:33:32;-3.50;42.30
490;DHT22;231;48.120;11.576;2022-12-18T15:36:00;-3.90;43.20
490;DHT22;231;48.120;11.576;2022-12-18T15:38:27;-3.60;44.10
490;DHT22;231;48.120;11.576;2022-12-18T15:40:55;-3.80;43.70
490;DHT22;231;48.120;11.576;2022-12-18T15:43:24;-4.00;43.80
490;DHT22;231;48.120;11.576;2022-12-18T15:46:00;-3.50;44.10
490;DHT22;231;48.120;11.576;2022-12-18T15:48:27;-3.50;43.90
490;DHT22;231;48.120;11.576;2022-12-18T15:50:56;-3.70;44.30
490;DHT22;231;48.120;11.576;2022-12-18T15:53:24;-3.20;43.90
490;DHT22;231;48.120;11.576;2022-12-18T15:55:52;-3.50;41.60
490;DHT22;231;48.120;11.576;2022-12-18T15:58:38;-3.10;40.70
490;DHT22;231;48.120;11.576;2022-12-18T16:01:06;-3.70;39.20
490;DHT22;231;48.120;11.576;2022-12-18T16:03:34;-3.80;38.50
490;DHT22;231;48.120;11.576;2022-12-18T16:06:01;-3.60;39.60
490;DHT22;231;48.120;11.576;2022-12-18T16:08:28;-3.40;39.80
490;DHT22;231;48.120;11.576;2022-12-18T16:10:56;-3.70;40.10
490;DHT22;231;48.120;11.576;2022-12-18T16:13:23;-3.90;39.90
490;DHT22;231;48.120;11.576;2022-12-18T16:15:52;-3.80;40.80
490;DHT22;231;48.120;11.576;2022-12-18T16:18:18;-3.30;41.30
490;DHT22;231;48.120;11.576;2022-12-18T16:20:45;-3.50;41.10
490;DHT22;231;48.120;11.576;2022-12-18T16:23:13;-3.40;40.30
490;DHT22;231;48.120;11.576;2022-12-18T16:25:39;-3.40;39.70
490;DHT22;231;48.120;11.576;2022-12-18T16:28:06;-3.50;38.70
490;DHT22;231;48.120;11.576;2022-12-18T16:30:33;-3.30;38.30
490;DHT22;231;48.120;11.576;2022-12-18T16:33:01;-3.40;37.00
490;DHT22;231;48.120;11.576;2022-12-18T16:35:28;-3.00;36.90
490;DHT22;231;48.120;11.576;2022-12-18T16:37:55;-3.30;36.70
490;DHT22;231;48.120;11.576;2022-12-18T16:40:22;-3.20;37.70
490;DHT22;231;48.120;11.576;2022-12-18T16:42:50;-3.60;37.70
490;DHT22;231;48.120;11.576;2022-12-18T16:45:17;-3.10;38.30
490;DHT22;231;48.120;11.576;2022-12-18T16:47:47;-3.50;37.90